West Galveston, Texas
Current Conditions -  °F | °C
As of 4:52 PM on Wednesday 26 Nov 2014 (Local Time) from KGLS Reporting Station
Clear Clear  
Wind Chill: 66°   Ceiling: Unl
Heat Index: 66°   Visibility: 10mi
Dew Point: 40°   Wind: 14mph
Humidity: 38%   Direction: 220°SW
Pressure: 30.22"   Gusts: NA
Location:  29.2029°N, 94.9576°W
Report Text: KGLS 262252Z 22012KT 10SM CLR 19/04 A3022 RMK AO2 SLP232 T01890044
Loading
Personal Weather Stations






























Interactive Weather Map New forecast layout! Learn more

10-Day Weather Forecast

Advertisements
Track Severe Weather on mobile